Time;durP1;ratioP1;P1;durP2;ratioP2;P2;SDS_P1;SDS_P2;PMS_P1;PMS_P2;Temp;Humidity;BMP_temperature;BMP_pressure;BME280_temperature;BME280_humidity;BME280_pressure;Samples;Min_cycle;Max_cycle;Signal;HPM_P1;HPM_P2
2022/05/14 00:00:50;;;;;;;7.30;2.30;;;;;;;9.69;68.86;99643.89;103550;1298;24464;-24
2022/05/14 00:03:19;;;;;;;6.10;2.00;;;;;;;9.70;68.79;99646.12;103769;1300;23139;-25
2022/05/14 00:05:48;;;;;;;12.00;1.90;;;;;;;9.60;69.28;99645.79;103739;1300;22493;-28
2022/05/14 00:08:17;;;;;;;14.10;3.40;;;;;;;9.60;69.06;99649.48;103722;1300;23464;-23
2022/05/14 00:13:19;;;;;;;4.50;2.20;;;;;;;9.47;69.67;99651.56;103729;1300;23609;-28
2022/05/14 00:15:48;;;;;;;6.10;2.30;;;;;;;9.52;69.76;99659.12;103733;1300;23599;-27
2022/05/14 00:18:17;;;;;;;7.60;4.30;;;;;;;9.54;69.66;99661.79;103706;1299;22508;-29
2022/05/14 00:20:46;;;;;;;2.70;1.90;;;;;;;9.21;70.82;99667.25;103818;1300;25223;-25
2022/05/14 00:23:15;;;;;;;4.30;2.20;;;;;;;9.17;70.64;99666.69;103564;1301;24331;-28
2022/05/14 00:25:44;;;;;;;1.60;1.00;;;;;;;9.30;70.24;99670.54;103630;1300;22512;-28
2022/05/14 00:28:13;;;;;;;1.80;1.30;;;;;;;9.11;71.51;99672.80;103757;1300;23807;-25
2022/05/14 00:30:43;;;;;;;11.40;1.70;;;;;;;9.15;70.85;99674.27;103736;1300;25002;-25
2022/05/14 00:33:12;;;;;;;4.70;2.00;;;;;;;8.98;71.27;99673.58;103604;1300;22492;-28
2022/05/14 00:35:41;;;;;;;2.70;1.50;;;;;;;8.92;71.43;99672.92;103705;1299;25009;-28
2022/05/14 00:38:10;;;;;;;2.60;1.40;;;;;;;8.99;71.72;99673.67;103776;1300;23734;-24
2022/05/14 00:40:41;;;;;;;3.20;1.60;;;;;;;8.95;72.39;99672.65;103765;1300;24250;-24
2022/05/14 00:43:10;;;;;;;6.90;1.60;;;;;;;9.02;72.54;99677.23;103598;1300;23007;-24
2022/05/14 00:45:50;;;;;;;3.40;2.20;;;;;;;9.29;71.47;99673.68;103732;1300;24307;-22
2022/05/14 00:48:19;;;;;;;2.90;1.80;;;;;;;9.38;71.30;99669.41;103667;1300;23781;-25
2022/05/14 00:50:50;;;;;;;5.60;1.20;;;;;;;9.29;71.76;99669.05;103732;1300;22693;-27
2022/05/14 00:53:21;;;;;;;5.60;1.80;;;;;;;9.37;71.55;99672.23;103817;1300;25283;-25
2022/05/14 00:55:51;;;;;;;3.40;1.20;;;;;;;9.45;71.19;99669.52;103681;1300;22507;-28
2022/05/14 00:58:33;;;;;;;6.10;1.90;;;;;;;9.44;71.14;99665.16;103751;1300;25009;-30
2022/05/14 01:01:02;;;;;;;8.30;1.90;;;;;;;9.45;70.96;99665.77;103618;1300;23964;-28
2022/05/14 01:03:31;;;;;;;2.90;2.50;;;;;;;9.49;71.24;99667.02;103746;1300;23746;-25
2022/05/14 01:06:02;;;;;;;7.50;3.70;;;;;;;9.57;70.90;99671.47;103717;1300;23812;-25
2022/05/14 01:08:31;;;;;;;8.80;3.30;;;;;;;9.49;71.39;99665.83;103745;1300;25149;-24
2022/05/14 01:10:59;;;;;;;8.20;2.40;;;;;;;9.50;71.37;99664.80;103692;1300;23768;-28
2022/05/14 01:13:29;;;;;;;3.50;2.60;;;;;;;9.53;71.22;99665.27;103756;1300;24254;-24
2022/05/14 01:16:00;;;;;;;5.60;1.80;;;;;;;9.57;70.96;99660.70;103784;1300;22585;-28
2022/05/14 01:18:31;;;;;;;4.90;2.10;;;;;;;9.48;71.51;99659.86;103723;1300;23603;-25
2022/05/14 01:21:04;;;;;;;5.20;1.70;;;;;;;9.50;71.57;99655.69;103772;1300;23637;-29
2022/05/14 01:28:49;;;;;;;2.40;1.20;;;;;;;9.63;71.50;99662.90;103668;1300;24345;-28
2022/05/14 01:31:18;;;;;;;3.20;1.90;;;;;;;9.69;71.54;99662.98;103785;1300;24217;-24
2022/05/14 01:33:47;;;;;;;2.50;1.30;;;;;;;9.71;71.44;99658.72;103727;1300;23616;-28
2022/05/14 01:36:16;;;;;;;2.40;1.00;;;;;;;9.80;70.93;99660.05;103642;1300;22557;-25
2022/05/14 01:38:45;;;;;;;1.90;1.30;;;;;;;9.72;71.45;99662.63;103608;1300;23567;-27
2022/05/14 01:41:14;;;;;;;2.30;1.30;;;;;;;9.66;71.73;99660.11;103750;1300;24297;-25
2022/05/14 01:43:43;;;;;;;3.90;1.60;;;;;;;9.66;72.11;99657.91;103710;1300;23530;-28
2022/05/14 01:46:12;;;;;;;2.90;1.40;;;;;;;9.63;71.84;99654.29;103742;1300;23746;-27
2022/05/14 01:48:41;;;;;;;2.80;1.70;;;;;;;9.66;72.08;99656.13;103691;1300;22512;-28
2022/05/14 01:51:10;;;;;;;4.30;1.60;;;;;;;9.70;71.59;99654.80;103738;1300;22503;-24
2022/05/14 01:53:39;;;;;;;4.20;1.90;;;;;;;9.83;70.88;99650.41;103727;1300;23732;-24
2022/05/14 01:56:08;;;;;;;5.30;2.20;;;;;;;9.87;70.30;99643.39;103730;1300;23736;-24
2022/05/14 01:58:37;;;;;;;5.30;1.90;;;;;;;9.79;70.34;99647.12;103818;1300;25009;-30
2022/05/14 02:01:13;;;;;;;8.00;3.20;;;;;;;9.66;71.07;99646.61;103775;1300;22724;-28
2022/05/14 02:03:44;;;;;;;11.60;1.50;;;;;;;9.66;70.86;99646.20;103702;1300;23637;-24
2022/05/14 02:06:13;;;;;;;2.30;1.60;;;;;;;9.72;70.51;99649.05;103711;1300;25091;-30
2022/05/14 02:08:42;;;;;;;2.10;1.80;;;;;;;9.60;70.59;99649.73;103736;1300;24231;-28
2022/05/14 02:11:13;;;;;;;2.10;1.50;;;;;;;9.39;71.62;99647.89;103801;1300;23552;-24
2022/05/14 02:13:43;;;;;;;3.60;1.90;;;;;;;9.26;71.98;99641.92;103744;1300;23947;-28
2022/05/14 02:16:12;;;;;;;6.20;1.80;;;;;;;9.21;71.84;99643.90;103728;1300;22515;-25
2022/05/14 02:18:41;;;;;;;5.10;1.70;;;;;;;9.10;72.17;99642.90;103747;1300;23755;-24
2022/05/14 02:21:11;;;;;;;5.70;1.60;;;;;;;9.01;72.59;99640.16;103727;1300;24362;-23
2022/05/14 02:23:40;;;;;;;2.50;1.40;;;;;;;9.02;72.29;99638.28;103715;1300;23899;-25
2022/05/14 02:26:10;;;;;;;3.30;1.70;;;;;;;8.86;72.81;99641.63;103760;1300;23615;-24
2022/05/14 02:28:40;;;;;;;4.10;1.40;;;;;;;8.74;72.45;99642.52;103719;1300;25177;-29
2022/05/14 02:31:09;;;;;;;1.80;1.50;;;;;;;8.63;73.19;99640.55;103701;1300;22604;-28
2022/05/14 02:33:38;;;;;;;2.50;1.40;;;;;;;8.63;72.93;99632.73;103767;1299;25021;-28
2022/05/14 02:36:08;;;;;;;5.70;1.60;;;;;;;8.56;73.05;99634.91;103738;1300;24196;-24
2022/05/14 02:38:37;;;;;;;4.10;2.10;;;;;;;8.53;73.51;99635.23;103767;1300;22908;-24
2022/05/14 02:41:07;;;;;;;2.70;1.70;;;;;;;8.60;73.71;99633.54;103739;1300;25108;-28
2022/05/14 02:43:36;;;;;;;2.00;1.60;;;;;;;8.60;73.56;99633.51;103709;1300;24350;-28
2022/05/14 02:46:06;;;;;;;5.10;2.00;;;;;;;8.46;74.14;99632.66;103777;1300;24211;-30
2022/05/14 02:48:35;;;;;;;3.80;2.20;;;;;;;8.28;74.69;99636.45;103686;1300;24246;-27
2022/05/14 02:51:05;;;;;;;7.20;1.70;;;;;;;8.16;74.60;99637.33;103710;1300;23745;-28
2022/05/14 02:53:34;;;;;;;3.90;2.40;;;;;;;8.12;75.02;99643.33;103689;1300;24052;-28
2022/05/14 02:56:03;;;;;;;5.00;1.80;;;;;;;8.01;75.27;99647.80;103636;1300;24209;-28
2022/05/14 03:01:05;;;;;;;4.20;1.90;;;;;;;7.89;75.89;99651.23;103720;1300;23615;-25
2022/05/14 03:03:34;;;;;;;5.20;2.10;;;;;;;7.84;76.66;99648.87;103678;1300;22851;-24
2022/05/14 03:06:03;;;;;;;5.60;2.60;;;;;;;7.76;77.37;99653.71;103659;1300;23523;-28
2022/05/14 03:08:32;;;;;;;4.50;2.00;;;;;;;7.74;77.64;99653.81;103751;1300;25632;-28
2022/05/14 03:11:02;;;;;;;3.90;2.50;;;;;;;7.74;77.86;99655.16;103773;1300;23814;-25
2022/05/14 03:13:31;;;;;;;2.10;1.90;;;;;;;7.76;77.31;99655.45;103745;1298;24239;-28
2022/05/14 03:16:00;;;;;;;8.60;2.20;;;;;;;7.72;77.77;99654.59;103726;1300;23742;-24
2022/05/14 03:18:29;;;;;;;2.10;1.90;;;;;;;7.78;77.97;99654.30;103748;1299;23554;-25
2022/05/14 03:20:58;;;;;;;3.10;1.70;;;;;;;7.84;77.53;99653.85;103721;1300;23745;-28
2022/05/14 03:23:28;;;;;;;3.50;2.20;;;;;;;7.76;78.29;99660.09;103655;1299;25006;-28
2022/05/14 03:25:57;;;;;;;10.90;2.20;;;;;;;7.66;78.78;99659.05;103691;1299;22505;-28
2022/05/14 03:28:26;;;;;;;11.40;3.00;;;;;;;7.57;79.11;99658.77;103734;1300;24992;-28
2022/05/14 03:30:56;;;;;;;3.00;1.90;;;;;;;7.63;79.22;99660.13;103713;1300;22518;-25
2022/05/14 03:33:26;;;;;;;3.00;2.10;;;;;;;7.63;79.10;99657.35;103641;1300;24237;-24
2022/05/14 03:35:55;;;;;;;3.40;2.20;;;;;;;7.80;78.36;99650.39;103665;1300;24307;-25
2022/05/14 03:38:24;;;;;;;5.60;2.20;;;;;;;7.82;77.88;99648.92;103747;1300;22512;-25
2022/05/14 03:40:53;;;;;;;4.90;2.30;;;;;;;7.84;78.30;99643.79;103768;1300;24328;-25
2022/05/14 03:43:22;;;;;;;8.20;2.40;;;;;;;8.07;77.91;99644.60;103729;1300;24196;-28
2022/05/14 03:45:52;;;;;;;6.60;2.50;;;;;;;8.27;77.21;99645.73;103732;1300;24371;-28
2022/05/14 03:48:20;;;;;;;5.10;2.40;;;;;;;8.48;76.68;99641.20;103730;1300;22498;-28
2022/05/14 03:50:49;;;;;;;3.80;2.20;;;;;;;8.64;76.62;99640.73;103777;1300;22493;-24
2022/05/14 03:53:19;;;;;;;13.50;2.40;;;;;;;8.85;75.77;99640.41;103729;1300;22505;-25
2022/05/14 03:55:48;;;;;;;3.00;2.20;;;;;;;9.08;75.03;99635.99;103751;1300;24234;-28
2022/05/14 03:58:17;;;;;;;10.10;2.10;;;;;;;9.21;74.06;99640.86;103727;1300;24218;-28
2022/05/14 04:00:46;;;;;;;7.00;3.20;;;;;;;9.37;73.62;99646.71;103671;1300;23747;-24
2022/05/14 04:03:15;;;;;;;4.00;2.20;;;;;;;9.52;73.09;99646.48;103571;1300;22626;-30
2022/05/14 04:05:44;;;;;;;5.20;2.10;;;;;;;9.59;72.64;99648.36;103719;1300;24274;-25
2022/05/14 04:08:13;;;;;;;4.00;2.20;;;;;;;9.76;71.99;99650.30;103729;1300;23612;-28
2022/05/14 04:10:43;;;;;;;5.60;2.80;;;;;;;9.81;71.58;99654.08;103724;1300;25105;-26
2022/05/14 04:13:13;;;;;;;2.70;1.90;;;;;;;9.94;71.40;99655.50;103692;1300;24253;-27
2022/05/14 04:15:42;;;;;;;12.90;7.10;;;;;;;10.00;70.93;99658.55;103777;1300;23611;-28
2022/05/14 04:18:11;;;;;;;51.90;29.80;;;;;;;9.90;70.82;99656.75;103433;1300;454320;-30
2022/05/14 04:20:40;;;;;;;45.80;28.20;;;;;;;9.54;72.28;99653.33;103748;1300;23769;-30
2022/05/14 04:23:09;;;;;;;13.40;8.60;;;;;;;9.70;72.21;99658.13;103679;1300;22610;-25
2022/05/14 04:25:39;;;;;;;9.20;3.80;;;;;;;9.57;72.64;99656.71;103716;1300;24351;-24
2022/05/14 04:28:08;;;;;;;2.70;1.70;;;;;;;9.67;72.72;99660.27;103705;1300;24249;-24
2022/05/14 04:30:37;;;;;;;7.10;1.90;;;;;;;9.60;73.36;99662.77;103729;1300;22599;-27
2022/05/14 04:33:06;;;;;;;2.30;1.40;;;;;;;9.56;74.02;99661.28;103731;1300;24344;-29
2022/05/14 04:35:35;;;;;;;10.20;1.60;;;;;;;9.70;73.85;99661.72;103790;1299;24297;-25
2022/05/14 04:38:04;;;;;;;2.90;1.30;;;;;;;9.88;73.31;99660.23;103553;1300;22505;-25
2022/05/14 04:40:34;;;;;;;6.20;1.50;;;;;;;10.09;72.80;99661.59;103770;1299;22664;-27
2022/05/14 04:43:05;;;;;;;5.20;1.80;;;;;;;10.20;72.20;99663.06;103743;1300;23826;-26
2022/05/14 04:45:35;;;;;;;20.90;2.20;;;;;;;10.57;71.42;99663.06;103630;1300;24966;-29
2022/05/14 04:48:05;;;;;;;1.80;1.70;;;;;;;10.91;71.03;99659.60;103553;1300;25106;-30
2022/05/14 04:50:34;;;;;;;7.30;1.30;;;;;;;11.31;69.91;99663.13;103735;1299;25293;-28
2022/05/14 04:53:03;;;;;;;4.40;1.40;;;;;;;11.43;69.35;99662.13;103704;1300;24359;-27
2022/05/14 04:55:32;;;;;;;3.10;1.70;;;;;;;11.77;68.19;99664.58;103521;1301;22499;-26
2022/05/14 04:58:02;;;;;;;4.30;1.40;;;;;;;11.91;68.98;99666.10;103734;1300;22499;-30
2022/05/14 05:00:31;;;;;;;2.70;1.00;;;;;;;12.35;66.94;99660.38;103757;1299;22973;-27
2022/05/14 05:05:32;;;;;;;5.00;1.30;;;;;;;12.57;65.63;99659.16;103695;1300;22492;-26
2022/05/14 05:08:01;;;;;;;2.30;1.10;;;;;;;12.80;64.47;99658.54;103766;1300;24214;-22
2022/05/14 05:10:30;;;;;;;1.20;0.70;;;;;;;12.78;64.41;99659.12;103701;1300;24546;-28
2022/05/14 05:12:59;;;;;;;2.10;1.10;;;;;;;12.86;63.00;99660.30;103743;1300;23602;-24
2022/05/14 05:15:28;;;;;;;3.80;1.40;;;;;;;12.70;64.02;99658.81;103697;1300;24329;-23
2022/05/14 05:17:57;;;;;;;3.40;1.00;;;;;;;12.84;63.59;99655.02;103799;1300;24211;-25
2022/05/14 05:20:26;;;;;;;2.20;1.40;;;;;;;12.80;62.46;99655.36;103722;1300;22513;-28
2022/05/14 05:22:55;;;;;;;1.30;0.80;;;;;;;12.81;62.09;99657.96;103703;1299;22518;-28
2022/05/14 05:25:25;;;;;;;6.10;1.80;;;;;;;12.95;62.25;99658.86;103761;1300;25121;-28
2022/05/14 05:27:54;;;;;;;3.00;1.70;;;;;;;13.13;61.05;99648.60;103739;1300;24246;-26
2022/05/14 05:30:23;;;;;;;2.50;1.50;;;;;;;13.32;61.02;99648.02;103738;1300;23602;-28
2022/05/14 05:32:52;;;;;;;7.20;1.40;;;;;;;13.32;61.83;99650.51;103723;1299;22500;-28
2022/05/14 05:35:21;;;;;;;2.00;1.00;;;;;;;13.30;61.86;99649.53;103705;1300;23817;-28
2022/05/14 05:37:50;;;;;;;13.00;1.40;;;;;;;13.61;60.23;99650.54;103721;1300;22500;-27
2022/05/14 05:40:19;;;;;;;2.40;1.60;;;;;;;13.61;60.26;99652.83;103721;1300;22499;-30
2022/05/14 05:42:48;;;;;;;1.80;0.90;;;;;;;13.53;60.77;99648.56;103754;1299;22764;-28
2022/05/14 05:45:19;;;;;;;6.50;1.50;;;;;;;13.90;59.86;99647.66;103688;1300;22514;-28
2022/05/14 05:47:48;;;;;;;1.60;1.00;;;;;;;14.09;59.19;99651.01;103687;1300;22850;-25
2022/05/14 05:50:17;;;;;;;1.80;1.10;;;;;;;14.12;59.23;99650.95;103713;1300;25325;-28
2022/05/14 05:52:46;;;;;;;3.60;1.50;;;;;;;14.15;60.31;99648.95;103767;1300;25099;-25
2022/05/14 05:57:47;;;;;;;1.20;0.60;;;;;;;14.69;57.83;99655.86;103796;1299;22687;-25
2022/05/14 06:00:19;;;;;;;2.50;1.00;;;;;;;14.48;58.32;99653.00;103735;1300;24351;-25
2022/05/14 06:02:49;;;;;;;4.30;1.10;;;;;;;14.60;58.45;99649.46;103710;1300;24211;-28
2022/05/14 06:05:18;;;;;;;2.80;1.00;;;;;;;14.94;57.46;99647.55;103727;1300;24220;-25
2022/05/14 06:07:47;;;;;;;2.40;0.70;;;;;;;15.02;56.98;99654.48;103755;1300;22637;-25
2022/05/14 06:10:18;;;;;;;5.40;1.00;;;;;;;15.17;56.33;99654.88;103743;1300;22504;-28
2022/05/14 06:12:47;;;;;;;3.00;1.00;;;;;;;15.43;55.61;99659.19;103738;1300;26135;-30
2022/05/14 06:15:17;;;;;;;2.10;0.80;;;;;;;15.33;55.35;99652.11;103733;1300;25107;-30
2022/05/14 06:17:46;;;;;;;1.20;0.50;;;;;;;15.62;54.52;99648.61;103731;1300;25324;-29
2022/05/14 06:20:16;;;;;;;3.00;0.80;;;;;;;15.78;55.25;99648.02;103741;1299;24289;-28
2022/05/14 06:22:45;;;;;;;3.40;0.60;;;;;;;16.05;53.71;99643.15;103745;1300;23919;-24
2022/05/14 06:25:14;;;;;;;7.50;0.70;;;;;;;16.07;53.49;99646.02;103822;1300;22892;-32
2022/05/14 06:27:43;;;;;;;2.00;1.00;;;;;;;15.77;55.44;99647.11;103848;1299;22493;-27
2022/05/14 06:30:12;;;;;;;1.10;0.60;;;;;;;16.35;54.54;99647.82;103767;1299;22502;-30
2022/05/14 06:32:41;;;;;;;10.00;1.40;;;;;;;16.65;52.28;99649.70;103748;1300;23644;-30
2022/05/14 06:35:11;;;;;;;6.30;0.90;;;;;;;16.25;52.92;99652.61;103733;1300;24143;-28
2022/05/14 06:37:41;;;;;;;3.60;0.90;;;;;;;16.72;52.33;99654.16;103756;1300;23895;-26
2022/05/14 06:40:11;;;;;;;3.50;0.80;;;;;;;16.91;51.05;99653.92;103704;1300;23830;-26
2022/05/14 06:42:40;;;;;;;1.10;0.70;;;;;;;16.66;51.26;99657.83;103693;1299;24233;-28
2022/05/14 06:45:10;;;;;;;2.50;1.40;;;;;;;16.50;50.84;99660.08;103746;1300;22696;-28
2022/05/14 06:47:39;;;;;;;2.10;1.20;;;;;;;16.42;51.50;99664.39;103715;1300;24235;-25
2022/05/14 06:50:08;;;;;;;2.60;0.70;;;;;;;16.48;51.32;99665.45;103775;1300;25002;-24
2022/05/14 06:52:38;;;;;;;1.70;0.60;;;;;;;16.59;50.46;99658.00;103784;1300;24306;-25
2022/05/14 06:55:09;;;;;;;3.20;1.00;;;;;;;16.62;51.48;99655.35;103745;1300;25213;-25
2022/05/14 06:57:38;;;;;;;13.60;1.20;;;;;;;16.86;51.11;99659.27;103791;1300;23804;-25
2022/05/14 07:00:08;;;;;;;3.20;0.70;;;;;;;16.87;51.25;99654.05;103709;1300;24248;-28
2022/05/14 07:02:37;;;;;;;2.20;0.80;;;;;;;17.11;51.59;99653.27;103750;1300;25329;-25
2022/05/14 07:07:39;;;;;;;3.70;1.50;;;;;;;17.31;50.18;99656.95;103746;1300;23606;-26
2022/05/14 07:10:08;;;;;;;1.80;0.70;;;;;;;17.09;51.73;99658.95;103724;1300;22496;-24
2022/05/14 07:12:37;;;;;;;2.20;0.70;;;;;;;17.15;52.29;99657.34;103726;1300;22486;-27
2022/05/14 07:15:07;;;;;;;1.90;0.60;;;;;;;17.29;51.70;99657.08;103747;1300;22625;-30
2022/05/14 07:17:36;;;;;;;4.50;1.30;;;;;;;17.01;52.67;99658.59;103725;1300;24330;-26
2022/05/14 07:20:06;;;;;;;1.70;0.60;;;;;;;17.06;50.92;99656.22;103729;1300;22520;-24
2022/05/14 07:22:35;;;;;;;3.20;0.70;;;;;;;16.85;51.59;99655.07;103748;1300;23589;-25
2022/05/14 07:25:04;;;;;;;1.80;1.10;;;;;;;16.72;51.48;99654.09;103731;1300;23602;-25
2022/05/14 07:27:34;;;;;;;10.80;0.60;;;;;;;16.40;53.26;99650.63;103753;1300;24961;-29
2022/05/14 07:30:04;;;;;;;1.70;0.60;;;;;;;16.50;53.65;99650.41;103685;1299;24912;-25
2022/05/14 07:32:34;;;;;;;3.10;1.30;;;;;;;16.98;53.27;99647.20;103737;1300;22606;-25
2022/05/14 07:35:03;;;;;;;0.60;0.40;;;;;;;17.18;51.04;99650.05;103697;1300;24307;-25
2022/05/14 07:37:33;;;;;;;0.60;0.40;;;;;;;16.85;51.70;99648.02;103704;1300;22499;-25
2022/05/14 07:40:05;;;;;;;3.20;0.50;;;;;;;16.87;51.73;99651.13;103738;1300;24992;-28
2022/05/14 07:42:39;;;;;;;1.70;0.90;;;;;;;16.93;52.48;99648.81;103774;1300;22500;-29
2022/05/14 07:45:10;;;;;;;6.50;1.20;;;;;;;17.43;51.06;99644.21;103702;1300;24229;-23
2022/05/14 07:47:39;;;;;;;3.90;1.30;;;;;;;17.67;50.06;99643.92;103682;1300;25378;-28
2022/05/14 07:50:08;;;;;;;3.10;1.30;;;;;;;17.87;48.61;99641.86;103690;1299;24211;-24
2022/05/14 07:52:37;;;;;;;3.30;1.40;;;;;;;17.52;49.22;99642.30;103710;1300;22496;-28
2022/05/14 07:55:08;;;;;;;4.70;0.80;;;;;;;17.20;49.81;99638.00;103723;1299;23606;-25
2022/05/14 07:57:37;;;;;;;8.60;1.20;;;;;;;17.19;51.04;99637.98;103833;1300;24215;-25
2022/05/14 08:00:07;;;;;;;2.10;0.80;;;;;;;17.58;49.68;99640.59;103691;1300;23781;-28
2022/05/14 08:02:36;;;;;;;1.60;0.80;;;;;;;17.80;47.28;99637.14;103804;1300;23590;-28
2022/05/14 08:05:08;;;;;;;2.70;1.00;;;;;;;17.81;48.39;99634.11;103712;1300;24245;-25
2022/05/14 08:07:37;;;;;;;7.60;0.90;;;;;;;17.56;47.89;99629.41;103715;1300;25442;-28
2022/05/14 08:10:07;;;;;;;1.10;0.80;;;;;;;17.92;47.11;99634.97;103595;1300;22489;-28
2022/05/14 08:12:41;;;;;;;3.90;1.20;;;;;;;17.83;46.80;99632.73;103741;1300;26160;-28
2022/05/14 08:15:11;;;;;;;1.00;0.80;;;;;;;17.96;48.03;99632.40;103737;1300;24256;-25
2022/05/14 08:17:40;;;;;;;4.80;1.20;;;;;;;18.26;45.02;99621.80;103714;1299;25512;-28
2022/05/14 08:20:10;;;;;;;1.40;1.00;;;;;;;17.91;46.63;99620.75;103730;1300;22515;-30
2022/05/14 08:25:12;;;;;;;2.50;1.50;;;;;;;18.20;45.64;99622.51;103783;1300;22496;-24
2022/05/14 08:30:15;;;;;;;1.80;1.10;;;;;;;18.61;44.51;99613.56;103734;1300;23785;-24
2022/05/14 08:32:44;;;;;;;2.40;0.90;;;;;;;18.63;43.83;99621.05;103759;1299;25006;-25
2022/05/14 08:35:13;;;;;;;1.60;1.10;;;;;;;18.66;44.75;99621.61;103724;1300;23628;-28
2022/05/14 08:37:44;;;;;;;1.30;0.80;;;;;;;18.80;44.35;99616.48;103766;1300;23828;-29
2022/05/14 08:40:18;;;;;;;3.60;0.80;;;;;;;18.61;44.10;99623.08;103743;1300;23892;-25
2022/05/14 08:42:49;;;;;;;2.00;1.40;;;;;;;18.79;44.04;99615.63;103740;1300;23654;-29
2022/05/14 08:45:19;;;;;;;5.70;1.70;;;;;;;19.15;43.47;99615.12;103761;1300;25050;-24
2022/05/14 08:47:55;;;;;;;6.50;1.30;;;;;;;19.45;41.11;99608.36;103727;1300;24025;-28
2022/05/14 08:50:30;;;;;;;7.10;1.60;;;;;;;19.64;40.40;99605.41;103695;1300;22955;-27
2022/05/14 08:53:00;;;;;;;2.30;0.80;;;;;;;19.40;40.62;99613.06;103796;1300;24291;-25
2022/05/14 08:55:40;;;;;;;2.00;0.60;;;;;;;20.15;38.96;99613.38;103739;1300;25328;-25
2022/05/14 08:58:18;;;;;;;2.80;0.70;;;;;;;19.68;39.56;99618.83;103697;1300;23764;-25
2022/05/14 09:00:47;;;;;;;2.70;0.70;;;;;;;19.42;40.25;99615.17;103616;1300;23830;-28
2022/05/14 09:03:16;;;;;;;2.00;0.80;;;;;;;19.16;41.49;99617.45;103583;1300;24247;-28
2022/05/14 09:05:53;;;;;;;2.10;0.80;;;;;;;19.06;40.94;99623.08;103571;1301;22599;-28
2022/05/14 09:08:23;;;;;;;3.90;1.40;;;;;;;19.02;40.23;99613.32;103704;1300;23590;-25
2022/05/14 09:10:59;;;;;;;1.00;0.70;;;;;;;19.12;40.52;99616.37;103765;1300;22672;-25
2022/05/14 09:13:28;;;;;;;2.10;1.20;;;;;;;18.57;43.49;99616.75;103762;1300;24228;-27
2022/05/14 09:15:59;;;;;;;8.80;3.50;;;;;;;18.19;44.38;99614.77;103745;1300;22770;-28
2022/05/14 09:18:32;;;;;;;4.40;1.40;;;;;;;18.12;45.14;99618.71;103562;1300;25341;-28
2022/05/14 09:21:03;;;;;;;1.30;1.00;;;;;;;17.84;45.91;99617.08;103659;1300;24297;-23
2022/05/14 09:23:40;;;;;;;8.90;1.50;;;;;;;17.86;44.76;99616.45;103699;1300;22496;-25
2022/05/14 09:26:10;;;;;;;2.00;0.60;;;;;;;17.82;45.35;99615.62;103750;1300;24294;-28
2022/05/14 09:28:42;;;;;;;1.80;0.90;;;;;;;17.99;46.19;99613.20;103679;1299;23951;-25
2022/05/14 09:31:26;;;;;;;16.70;1.40;;;;;;;17.90;45.30;99617.13;103790;1299;24275;-25
2022/05/14 09:34:00;;;;;;;2.40;1.00;;;;;;;18.28;44.19;99622.06;103763;1300;24301;-25
2022/05/14 09:36:29;;;;;;;5.90;1.30;;;;;;;18.57;43.03;99612.56;103736;1300;24243;-29
2022/05/14 09:39:02;;;;;;;1.50;1.10;;;;;;;18.62;42.58;99618.60;103746;1300;22500;-29
2022/05/14 09:41:38;;;;;;;3.50;2.40;;;;;;;18.94;42.49;99609.66;103767;1299;22823;-29
2022/05/14 09:44:12;;;;;;;3.20;1.60;;;;;;;19.16;42.02;99600.34;103793;1300;24246;-25
2022/05/14 09:46:41;;;;;;;2.40;1.30;;;;;;;18.78;42.34;99608.42;103698;1300;22632;-25
2022/05/14 09:49:18;;;;;;;2.20;1.20;;;;;;;18.56;43.21;99612.54;103722;1300;24492;-29
2022/05/14 09:51:51;;;;;;;3.20;1.00;;;;;;;18.86;43.95;99609.78;103707;1300;22510;-25
2022/05/14 09:54:23;;;;;;;5.10;1.30;;;;;;;19.21;43.22;99602.53;103736;1300;22791;-25
2022/05/14 09:57:02;;;;;;;2.10;0.90;;;;;;;19.20;41.30;99603.52;103821;1300;24091;-25
2022/05/14 09:59:35;;;;;;;2.90;1.10;;;;;;;19.02;42.42;99602.16;103716;1300;23620;-24
2022/05/14 10:02:11;;;;;;;5.40;1.60;;;;;;;18.90;43.21;99600.42;103796;1300;22802;-28
2022/05/14 10:04:48;;;;;;;2.30;0.70;;;;;;;19.03;42.15;99593.69;103698;1300;24345;-25
2022/05/14 10:07:20;;;;;;;1.70;0.90;;;;;;;18.74;42.48;99596.99;103728;1300;24331;-28
2022/05/14 10:09:56;;;;;;;3.20;1.40;;;;;;;18.66;43.09;99595.88;103773;1300;23909;-25
2022/05/14 10:12:31;;;;;;;7.70;1.90;;;;;;;18.65;43.49;99589.20;103735;1300;22626;-25
2022/05/14 10:15:12;;;;;;;3.00;1.90;;;;;;;18.40;43.22;99592.61;103758;1300;23603;-28
2022/05/14 10:17:50;;;;;;;4.80;1.80;;;;;;;18.75;43.57;99587.55;103586;1300;23620;-29
2022/05/14 10:20:31;;;;;;;4.80;2.80;;;;;;;19.63;41.54;99579.80;103713;1300;24289;-25
2022/05/14 10:28:25;;;;;;;5.50;2.10;;;;;;;19.76;39.81;99573.42;103758;1299;24278;-28
2022/05/14 10:31:01;;;;;;;11.20;3.70;;;;;;;20.07;40.61;99570.02;103723;1299;24215;-25
2022/05/14 10:33:30;;;;;;;2.90;2.00;;;;;;;20.28;40.17;99565.62;103721;1299;22761;-24
2022/05/14 10:36:07;;;;;;;4.40;2.40;;;;;;;20.18;40.31;99566.60;103758;1300;22509;-28
2022/05/14 10:38:44;;;;;;;3.90;2.80;;;;;;;19.90;39.84;99566.48;103730;1300;23783;-28
2022/05/14 10:41:18;;;;;;;3.00;2.40;;;;;;;20.11;40.83;99562.89;103804;1300;22496;-28
2022/05/14 10:43:51;;;;;;;5.50;3.10;;;;;;;20.93;39.37;99554.58;103783;1300;23526;-28
2022/05/14 10:46:21;;;;;;;2.40;2.00;;;;;;;20.92;37.25;99555.55;103682;1300;24208;-29
2022/05/14 10:48:58;;;;;;;4.40;1.70;;;;;;;21.08;36.89;99552.90;103777;1300;23762;-25
2022/05/14 10:51:28;;;;;;;5.70;2.30;;;;;;;20.56;38.84;99556.22;103578;1300;22776;-25
2022/05/14 10:54:00;;;;;;;6.90;2.10;;;;;;;20.30;39.58;99553.31;103744;1300;25875;-25
2022/05/14 10:56:33;;;;;;;4.20;2.20;;;;;;;19.80;40.78;99566.27;103764;1300;24193;-25
2022/05/14 10:59:08;;;;;;;2.40;2.20;;;;;;;19.04;43.07;99569.11;103719;1300;23804;-28
2022/05/14 11:01:38;;;;;;;9.40;1.90;;;;;;;19.04;44.22;99564.05;103750;1300;22880;-24
2022/05/14 11:04:14;;;;;;;6.20;2.50;;;;;;;19.16;44.23;99563.02;103720;1300;25611;-28
2022/05/14 11:06:47;;;;;;;3.80;2.50;;;;;;;19.35;44.19;99559.39;103722;1300;23567;-28
2022/05/14 11:09:19;;;;;;;3.90;2.40;;;;;;;19.39;44.07;99558.15;103755;1300;24234;-28
2022/05/14 11:11:51;;;;;;;15.20;3.30;;;;;;;19.42;43.59;99552.84;103737;1300;25055;-28
2022/05/14 11:14:20;;;;;;;4.00;2.80;;;;;;;19.36;43.42;99556.64;103689;1300;22727;-25
2022/05/14 11:16:51;;;;;;;6.20;2.20;;;;;;;19.32;44.10;99560.02;103718;1300;23602;-26
2022/05/14 11:19:25;;;;;;;3.70;1.90;;;;;;;19.67;44.21;99555.72;103713;1300;25225;-28
2022/05/14 11:21:55;;;;;;;3.50;1.90;;;;;;;19.89;42.15;99557.92;103672;1300;25025;-28
2022/05/14 11:24:31;;;;;;;2.90;2.30;;;;;;;20.39;41.91;99556.31;103764;1300;25125;-28
2022/05/14 11:27:00;;;;;;;5.40;3.00;;;;;;;20.37;41.74;99551.48;103721;1300;24207;-28
2022/05/14 11:29:30;;;;;;;4.70;2.50;;;;;;;19.85;42.26;99550.62;103727;1299;23683;-28
2022/05/14 11:32:04;;;;;;;7.20;1.60;;;;;;;19.85;42.86;99552.19;103764;1300;25226;-27
2022/05/14 11:34:34;;;;;;;2.40;1.30;;;;;;;19.70;44.49;99553.70;103715;1300;25102;-28
2022/05/14 11:37:05;;;;;;;1.90;1.80;;;;;;;19.90;42.72;99548.17;103750;1300;23783;-25
2022/05/14 11:39:36;;;;;;;7.30;1.90;;;;;;;20.18;42.44;99548.06;103604;1300;24297;-25
2022/05/14 11:42:09;;;;;;;6.40;2.40;;;;;;;19.79;42.98;99553.35;103735;1300;24961;-25
2022/05/14 11:44:45;;;;;;;17.60;2.50;;;;;;;19.54;42.85;99552.91;103751;1300;23609;-28
2022/05/14 11:47:21;;;;;;;4.80;2.70;;;;;;;19.42;42.79;99547.08;103683;1300;25005;-28
2022/05/14 11:49:50;;;;;;;3.70;2.30;;;;;;;18.91;44.89;99551.41;103725;1300;24233;-25
2022/05/14 11:52:22;;;;;;;3.70;3.20;;;;;;;18.91;45.70;99552.35;103592;1300;23615;-25
2022/05/14 11:54:55;;;;;;;6.80;2.40;;;;;;;18.98;45.75;99558.00;103708;1300;24282;-28
2022/05/14 11:57:27;;;;;;;6.70;2.60;;;;;;;19.08;45.76;99552.34;103762;1300;25108;-28
2022/05/14 11:59:58;;;;;;;2.50;2.30;;;;;;;19.73;45.12;99550.35;103707;1300;23918;-24
2022/05/14 12:02:34;;;;;;;6.00;2.50;;;;;;;19.87;43.78;99544.04;103723;1300;22622;-22
2022/05/14 12:05:04;;;;;;;4.80;2.70;;;;;;;20.25;42.99;99544.05;103803;1300;22622;-24
2022/05/14 12:07:37;;;;;;;8.50;2.30;;;;;;;21.07;41.34;99542.95;103702;1300;23764;-24
2022/05/14 12:10:10;;;;;;;3.20;2.20;;;;;;;20.90;42.30;99539.44;103906;1300;24291;-24